Airfield :







YOU CAN JOIN US ON...

 
LOGIN :

Register | Disclaimer

   EN    FR    IT 

 









Legend :    VFR   Marginal VFR   IFR   Intensive IFR   Very Intensive IFR
Visi :
Ceiling :
>= 8 km
>= 3000ft
5 to 8 km
1000 to 3000 ft
1500m to 5 km
500 to 1000 ft
800 to 1500m
200 to 500 ft
< 800m
< 200 ft
Symbols :   Thunderstorms  Fog  Heavy snow  Heavy precipitations  Wind > 20 kt






- Airport Elevation : 49 ft
- IATA code : SBH


TFFJ - Gustaf III

CURRENT METAR :
  • 200430Z AUTO 01010KT 9999 BKN021/// ///TCU 27/23 Q1014

EXPIRED METARs :
  • 200400Z AUTO 02006KT 9999 FEW019 27/23 Q1015
  • 200330Z AUTO 04008KT 9999 FEW019 27/23 Q1015
  • 200300Z AUTO 06008KT 9999 FEW030 27/23 Q1015
  • 200230Z AUTO 05009KT 8000 BKN023 BKN041 BKN062 27/23 Q1015
  • 200200Z AUTO 02010KT 9999 BKN023 27/23 Q1015
  • 200130Z AUTO 03009KT 9999 FEW025 27/23 Q1015
  • 200100Z AUTO 04009KT 9000 FEW025 27/23 Q1014
  • 200030Z AUTO 03008KT 9999 FEW021 27/23 Q1014
  • 200000Z AUTO 03008KT 9999 FEW022 28/23 Q1014
  • 192330Z AUTO 04008KT 9999 FEW021 28/23 Q1014

TAF N/A
TJZS FIR / North America



MET'MAP, your aeronautical weather chart ! - Copyright ORBIFLY December 2007 - Disclaimer

ORBIFLY MET'MAP TEAM :

Programming & Development : Alexandra Zaïnal
Original concept : Baudouin d'Aumeries
Technical & hardware support : Manuel Goepfert
Assistance : Marc-Olivier Méhu




SOURCES & CREDITS :

   NOAA